Terminal Aerodrome Forecast
Issued by NWS Charleston, WV

Current Version | Previous Version | Graphics & Text | Print | Product List | Glossary On
Versions: 1 2 3 4 5 6 7 8 9 10 11 12 13 14 15 16 17 18 19 20 21 22 23 24 25 26
000
FTUS41 KRLX 311700
TAFHTS
TAF
KHTS 311729Z 3118/0118 20005KT 6SM -RA BKN015 BKN025 OVC060
     FM312200 18005KT 4SM SHRA BR OVC013
     FM010300 23008KT 4SM BR OVC014
     FM011100 22004KT 2SM BR SCT003 BKN017
     FM011300 21006KT 4SM BR BKN020
     FM011500 22007KT P6SM SCT025=

USA.gov is the U.S. government's official web portal to all federal, state and local government web resources and services.